Time;durP1;ratioP1;P1;durP2;ratioP2;P2;SDS_P1;SDS_P2;PMS_P1;PMS_P2;Temp;Humidity;BMP_temperature;BMP_pressure;BME280_temperature;BME280_humidity;BME280_pressure;Samples;Min_cycle;Max_cycle;Signal;HPM_P1;HPM_P2
2022/02/12 00:00:34;;;;;;;34.75;17.33;;;3.40;99.90;;;;;;5088756;28;20081;-74
2022/02/12 00:03:00;;;;;;;31.00;15.10;;;3.40;99.90;;;;;;5091539;28;20476;-73
2022/02/12 00:05:26;;;;;;;36.67;16.70;;;3.30;99.90;;;;;;5088674;28;20519;-75
2022/02/12 00:07:52;;;;;;;38.13;17.92;;;3.30;99.90;;;;;;5085028;28;20028;-74
2022/02/12 00:10:19;;;;;;;31.45;15.77;;;3.30;99.90;;;;;;5088895;28;20032;-74
2022/02/12 00:12:44;;;;;;;36.40;17.00;;;3.20;99.90;;;;;;5090831;28;20030;-74
2022/02/12 00:15:11;;;;;;;33.83;16.95;;;3.10;99.90;;;;;;5090368;28;20524;-74
2022/02/12 00:17:36;;;;;;;37.25;18.67;;;3.00;99.90;;;;;;5085179;28;20535;-74
2022/02/12 00:20:04;;;;;;;47.38;20.80;;;3.00;99.90;;;;;;5090226;28;20123;-74
2022/02/12 00:22:30;;;;;;;39.28;17.58;;;3.00;99.90;;;;;;5089782;28;20017;-74
2022/02/12 00:24:56;;;;;;;33.33;15.13;;;3.00;99.90;;;;;;5087236;28;20020;-74
2022/02/12 00:27:22;;;;;;;31.25;14.88;;;3.00;99.90;;;;;;5090355;28;20073;-73
2022/02/12 00:29:47;;;;;;;30.88;15.13;;;3.10;99.90;;;;;;5089899;28;20044;-73
2022/02/12 00:32:14;;;;;;;25.70;14.60;;;3.10;99.90;;;;;;5085665;28;20111;-73
2022/02/12 00:34:40;;;;;;;24.52;12.95;;;3.00;99.90;;;;;;5085090;28;20062;-73
2022/02/12 00:37:06;;;;;;;30.63;14.10;;;3.00;99.90;;;;;;5092128;28;20020;-73
2022/02/12 00:39:31;;;;;;;29.90;14.32;;;2.80;99.90;;;;;;5089478;28;20458;-73
2022/02/12 00:41:57;;;;;;;31.35;13.60;;;2.80;99.90;;;;;;5088186;28;20032;-73
2022/02/12 00:44:23;;;;;;;30.38;14.43;;;2.90;99.90;;;;;;5088944;28;20089;-73
2022/02/12 00:46:50;;;;;;;27.88;13.10;;;3.00;99.90;;;;;;5086595;28;20428;-74
2022/02/12 00:49:15;;;;;;;36.05;14.13;;;2.90;99.90;;;;;;5089029;28;20077;-74
2022/02/12 00:51:41;;;;;;;23.08;12.80;;;2.90;99.90;;;;;;5082793;28;20032;-74
2022/02/12 00:54:07;;;;;;;25.00;13.93;;;2.90;99.90;;;;;;5088304;28;20476;-74
2022/02/12 00:56:32;;;;;;;28.33;13.57;;;2.80;99.90;;;;;;5092730;28;20091;-72
2022/02/12 00:58:58;;;;;;;33.80;14.20;;;2.80;99.90;;;;;;5089079;28;20081;-74
2022/02/12 01:01:24;;;;;;;30.77;14.98;;;2.80;99.90;;;;;;5088246;28;20034;-73
2022/02/12 01:03:49;;;;;;;35.83;16.10;;;2.80;99.90;;;;;;5088488;28;20119;-73
2022/02/12 01:06:15;;;;;;;30.48;16.08;;;2.80;99.90;;;;;;5087533;28;20366;-75
2022/02/12 01:08:41;;;;;;;32.00;14.43;;;2.80;99.90;;;;;;5087252;28;20036;-73
2022/02/12 01:11:07;;;;;;;33.22;14.52;;;2.80;99.90;;;;;;5091274;28;20059;-73
2022/02/12 01:13:33;;;;;;;29.23;13.35;;;2.80;99.90;;;;;;5086615;28;20402;-75
2022/02/12 01:15:58;;;;;;;22.52;12.85;;;2.80;99.90;;;;;;5090405;28;20024;-73
2022/02/12 01:18:24;;;;;;;33.30;13.18;;;2.80;99.90;;;;;;5086667;28;20374;-73
2022/02/12 01:20:50;;;;;;;31.13;13.50;;;2.70;99.90;;;;;;5088314;28;20535;-74
2022/02/12 01:23:15;;;;;;;30.83;12.48;;;2.70;99.90;;;;;;5084079;28;20104;-73
2022/02/12 01:25:41;;;;;;;27.67;13.35;;;2.70;99.90;;;;;;5087542;28;20071;-73
2022/02/12 01:28:07;;;;;;;27.77;13.25;;;2.80;99.90;;;;;;5085509;28;20415;-72
2022/02/12 01:30:32;;;;;;;26.63;13.30;;;2.80;99.90;;;;;;5086592;28;20035;-73
2022/02/12 01:32:58;;;;;;;26.15;12.43;;;2.70;99.90;;;;;;5086165;28;20046;-73
2022/02/12 01:35:24;;;;;;;27.88;12.77;;;2.70;99.90;;;;;;5084318;28;20038;-73
2022/02/12 01:37:52;;;;;;;26.95;13.23;;;2.70;99.90;;;;;;5085646;28;20472;-75
2022/02/12 01:40:21;;;;;;;24.17;12.38;;;2.70;99.90;;;;;;5091202;28;20082;-73
2022/02/12 01:42:48;;;;;;;22.17;11.50;;;2.70;99.90;;;;;;5082469;28;20043;-73
2022/02/12 01:45:14;;;;;;;28.85;13.35;;;2.60;99.90;;;;;;5086484;28;20170;-77
2022/02/12 01:47:40;;;;;;;26.52;12.82;;;2.60;99.90;;;;;;5090678;28;20104;-73
2022/02/12 01:50:06;;;;;;;27.13;13.65;;;2.60;99.90;;;;;;5090375;28;20032;-73
2022/02/12 01:52:32;;;;;;;25.80;12.73;;;2.60;99.90;;;;;;5086088;28;20057;-73
2022/02/12 01:54:59;;;;;;;26.85;12.80;;;2.60;99.90;;;;;;5084984;28;20032;-73
2022/02/12 01:57:25;;;;;;;29.88;15.80;;;2.60;99.90;;;;;;5085300;28;20051;-73
2022/02/12 01:59:50;;;;;;;29.67;12.25;;;2.60;99.90;;;;;;5084269;28;20063;-73
2022/02/12 02:02:16;;;;;;;27.73;13.25;;;2.50;99.90;;;;;;5089632;28;20028;-74
2022/02/12 02:04:42;;;;;;;26.88;12.43;;;2.40;99.90;;;;;;5089936;28;20499;-73
2022/02/12 02:07:10;;;;;;;30.25;14.48;;;2.40;99.90;;;;;;5092458;28;20024;-73
2022/02/12 02:09:36;;;;;;;25.23;12.90;;;2.40;99.90;;;;;;5084879;28;20082;-73
2022/02/12 02:12:03;;;;;;;25.50;13.50;;;2.40;99.90;;;;;;5083760;28;20484;-72
2022/02/12 02:14:31;;;;;;;29.23;14.18;;;2.40;99.90;;;;;;5087486;28;20028;-72
2022/02/12 02:16:56;;;;;;;24.45;13.75;;;2.40;99.90;;;;;;5084747;28;20392;-72
2022/02/12 02:19:23;;;;;;;26.85;13.00;;;2.40;99.90;;;;;;5090821;28;20032;-72
2022/02/12 02:21:51;;;;;;;30.00;12.73;;;2.40;99.90;;;;;;5087195;28;20499;-72
2022/02/12 02:24:17;;;;;;;24.88;12.25;;;2.40;99.90;;;;;;5086854;28;20081;-72
2022/02/12 02:26:43;;;;;;;29.35;12.95;;;2.40;99.90;;;;;;5092153;28;20020;-72
2022/02/12 02:29:09;;;;;;;27.83;12.85;;;2.40;99.90;;;;;;5087532;28;20392;-72
2022/02/12 02:31:35;;;;;;;33.13;13.52;;;2.40;99.90;;;;;;5088115;28;20024;-73
2022/02/12 02:34:08;;;;;;;29.75;13.07;;;2.40;99.90;;;;;;5091850;28;20016;-72
2022/02/12 02:36:34;;;;;;;25.58;12.68;;;2.40;99.90;;;;;;5086826;28;20028;-72
2022/02/12 02:39:00;;;;;;;22.25;13.52;;;2.30;99.90;;;;;;5091190;28;20099;-72
2022/02/12 02:41:25;;;;;;;32.08;13.38;;;2.40;99.90;;;;;;5093844;28;20069;-72
2022/02/12 02:43:51;;;;;;;21.30;12.63;;;2.40;99.90;;;;;;5092484;28;20060;-72
2022/02/12 02:46:17;;;;;;;28.83;13.13;;;2.40;99.90;;;;;;5087085;28;20024;-73
2022/02/12 02:48:42;;;;;;;26.92;13.10;;;2.30;99.90;;;;;;5091948;28;20095;-72
2022/02/12 02:56:57;;;;;;;33.88;13.65;;;2.30;99.90;;;;;;5071548;28;20033;-72
2022/02/12 02:59:22;;;;;;;32.13;13.40;;;2.30;99.90;;;;;;5071601;28;20033;-71
2022/02/12 03:01:52;;;;;;;27.98;13.05;;;2.30;99.90;;;;;;5078506;28;20129;-72
2022/02/12 03:04:20;;;;;;;27.42;13.15;;;2.30;99.90;;;;;;5093784;28;20389;-72
2022/02/12 03:06:46;;;;;;;34.40;13.63;;;2.20;99.90;;;;;;5092047;28;20024;-71
2022/02/12 03:09:11;;;;;;;31.25;13.20;;;2.20;99.90;;;;;;5085619;28;20024;-72
2022/02/12 03:11:37;;;;;;;31.83;13.20;;;2.10;99.90;;;;;;5091862;28;20077;-71
2022/02/12 03:14:03;;;;;;;28.77;13.23;;;2.10;99.90;;;;;;5088352;28;20047;-72
2022/02/12 03:16:28;;;;;;;28.35;12.77;;;2.00;99.90;;;;;;5090910;28;20458;-72
2022/02/12 03:18:54;;;;;;;25.42;11.65;;;2.00;99.90;;;;;;5091189;28;20035;-71
2022/02/12 03:21:20;;;;;;;27.10;11.98;;;1.90;99.90;;;;;;5088456;28;20028;-71
2022/02/12 03:23:46;;;;;;;31.67;12.60;;;1.90;99.90;;;;;;5091754;28;20118;-71
2022/02/12 03:26:12;;;;;;;28.38;12.98;;;2.00;99.90;;;;;;5089638;28;20106;-71
2022/02/12 03:28:38;;;;;;;27.55;11.77;;;2.00;99.90;;;;;;5090227;28;20028;-71
2022/02/12 03:31:04;;;;;;;31.10;11.90;;;2.00;99.90;;;;;;5085250;28;20104;-72
2022/02/12 03:33:29;;;;;;;28.48;13.32;;;2.00;99.90;;;;;;5091595;28;20031;-72
2022/02/12 03:35:55;;;;;;;29.23;13.05;;;2.10;99.90;;;;;;5093437;28;20039;-72
2022/02/12 03:38:26;;;;;;;28.95;11.98;;;2.00;99.90;;;;;;5085222;28;20028;-72
2022/02/12 03:40:54;;;;;;;33.10;13.88;;;2.00;99.90;;;;;;5088650;28;20032;-72
2022/02/12 03:43:20;;;;;;;32.25;13.73;;;1.90;99.90;;;;;;5085217;28;20031;-72
2022/02/12 03:45:46;;;;;;;31.13;13.38;;;1.80;99.90;;;;;;5087344;28;20035;-73
2022/02/12 03:48:12;;;;;;;32.35;13.05;;;1.90;99.90;;;;;;5089313;28;20028;-71
2022/02/12 03:50:39;;;;;;;31.30;13.98;;;1.90;99.90;;;;;;5093286;28;20039;-73
2022/02/12 03:53:06;;;;;;;28.10;13.02;;;1.90;99.90;;;;;;5087952;28;20031;-72
2022/02/12 03:55:37;;;;;;;38.42;13.35;;;1.90;99.90;;;;;;5086477;28;20071;-72
2022/02/12 03:58:04;;;;;;;31.52;13.60;;;1.90;99.90;;;;;;5091255;28;20039;-74
2022/02/12 04:00:29;;;;;;;31.05;12.55;;;1.90;99.90;;;;;;5092821;28;20028;-72
2022/02/12 04:02:57;;;;;;;34.45;13.82;;;1.90;99.90;;;;;;5091703;28;20396;-72
2022/02/12 04:05:23;;;;;;;37.35;15.43;;;1.90;99.90;;;;;;5088344;28;20427;-72
2022/02/12 04:07:49;;;;;;;30.08;12.18;;;1.90;99.90;;;;;;5081657;28;20059;-72
2022/02/12 04:10:16;;;;;;;32.00;13.18;;;2.00;99.90;;;;;;5089669;28;20512;-72
2022/02/12 04:12:44;;;;;;;33.95;13.10;;;2.00;99.90;;;;;;5085510;28;20032;-74
2022/02/12 04:15:11;;;;;;;26.48;12.65;;;1.90;99.90;;;;;;5088919;28;20025;-71
2022/02/12 04:17:37;;;;;;;34.25;13.05;;;1.90;99.90;;;;;;5089883;28;20036;-72
2022/02/12 04:20:08;;;;;;;29.38;12.82;;;1.90;99.90;;;;;;5087309;28;20028;-72
2022/02/12 04:22:35;;;;;;;34.55;13.10;;;1.90;99.90;;;;;;5088853;28;20021;-72
2022/02/12 04:25:02;;;;;;;35.08;13.90;;;1.90;99.90;;;;;;5085284;28;20110;-72
2022/02/12 04:27:28;;;;;;;37.33;15.80;;;1.90;99.90;;;;;;5090561;28;20024;-72
2022/02/12 04:29:54;;;;;;;30.67;13.52;;;1.90;99.90;;;;;;5086513;28;20109;-73
2022/02/12 04:32:20;;;;;;;29.67;15.40;;;1.80;99.90;;;;;;5088034;28;20038;-72
2022/02/12 04:34:50;;;;;;;32.05;14.00;;;1.80;99.90;;;;;;5087166;28;20068;-72
2022/02/12 04:37:16;;;;;;;30.95;13.57;;;1.80;99.90;;;;;;5087319;28;20400;-72
2022/02/12 04:39:42;;;;;;;31.00;12.90;;;1.80;99.90;;;;;;5087517;28;20028;-72
2022/02/12 04:42:11;;;;;;;27.98;12.30;;;1.80;99.90;;;;;;5086880;28;20063;-72
2022/02/12 04:44:41;;;;;;;27.70;13.55;;;1.70;99.90;;;;;;5083521;28;20472;-72
2022/02/12 04:47:08;;;;;;;28.75;13.48;;;1.70;99.90;;;;;;5087762;28;20034;-75
2022/02/12 04:49:37;;;;;;;28.83;13.00;;;1.70;99.90;;;;;;5089406;28;20023;-72
2022/02/12 04:52:05;;;;;;;30.08;13.57;;;1.70;99.90;;;;;;5084509;28;20039;-72
2022/02/12 04:54:31;;;;;;;28.65;12.93;;;1.60;99.90;;;;;;5089068;28;20021;-73
2022/02/12 04:56:57;;;;;;;29.98;12.05;;;1.70;99.90;;;;;;5082480;28;20050;-72
2022/02/12 04:59:24;;;;;;;38.78;13.65;;;1.60;99.90;;;;;;5089972;28;20020;-72
2022/02/12 05:01:50;;;;;;;29.90;12.55;;;1.60;99.90;;;;;;5085088;28;20381;-72
2022/02/12 05:04:17;;;;;;;32.47;12.98;;;1.50;99.90;;;;;;5088115;28;20475;-71
2022/02/12 05:06:43;;;;;;;33.17;12.75;;;1.60;99.90;;;;;;5088042;28;20095;-72
2022/02/12 05:09:11;;;;;;;26.05;13.77;;;1.70;99.90;;;;;;5089536;28;20499;-71
2022/02/12 05:11:40;;;;;;;30.20;12.13;;;1.60;99.90;;;;;;5090525;28;20027;-72
2022/02/12 05:14:06;;;;;;;31.88;12.90;;;1.60;99.90;;;;;;5091633;28;20033;-71
2022/02/12 05:16:32;;;;;;;28.33;13.35;;;1.60;99.90;;;;;;5081257;28;20024;-73
2022/02/12 05:18:58;;;;;;;37.08;13.88;;;1.70;99.90;;;;;;5089601;28;20032;-72
2022/02/12 05:21:23;;;;;;;25.08;12.70;;;1.70;99.90;;;;;;5090360;28;20020;-72
2022/02/12 05:23:49;;;;;;;29.55;13.30;;;1.70;99.90;;;;;;5086229;28;20023;-72
2022/02/12 05:26:16;;;;;;;28.75;13.77;;;1.70;99.90;;;;;;5087680;28;20024;-72
2022/02/12 05:28:42;;;;;;;32.97;13.85;;;1.70;99.90;;;;;;5089098;28;20476;-73
2022/02/12 05:31:08;;;;;;;43.65;13.82;;;1.70;99.90;;;;;;5098492;28;20048;-71
2022/02/12 05:33:37;;;;;;;26.85;12.65;;;1.70;99.90;;;;;;5090086;28;20031;-72
2022/02/12 05:36:08;;;;;;;33.92;11.77;;;1.60;99.90;;;;;;5084966;28;20361;-72
2022/02/12 05:38:36;;;;;;;36.90;11.32;;;1.70;99.90;;;;;;5084576;28;20039;-72
2022/02/12 05:41:03;;;;;;;28.95;11.43;;;1.60;99.90;;;;;;5088041;28;20024;-72
2022/02/12 05:43:28;;;;;;;35.05;11.25;;;1.60;99.90;;;;;;5085082;28;20028;-71
2022/02/12 05:45:54;;;;;;;30.50;11.07;;;1.70;99.90;;;;;;5090658;28;20081;-72
2022/02/12 05:48:21;;;;;;;40.75;11.50;;;1.70;99.90;;;;;;5083985;28;20028;-72
2022/02/12 05:50:47;;;;;;;29.83;10.60;;;1.60;99.90;;;;;;5090213;28;20028;-72
2022/02/12 05:53:12;;;;;;;29.17;11.23;;;1.60;99.90;;;;;;5087721;28;20043;-72
2022/02/12 05:55:38;;;;;;;31.30;10.48;;;1.60;99.90;;;;;;5084058;28;20428;-72
2022/02/12 05:58:04;;;;;;;25.20;10.80;;;1.70;99.90;;;;;;5088307;28;20027;-71
2022/02/12 06:00:30;;;;;;;28.35;10.30;;;1.70;99.90;;;;;;5084297;28;20039;-72
2022/02/12 06:02:55;;;;;;;30.75;10.55;;;1.70;99.90;;;;;;5088160;28;20035;-72
2022/02/12 06:05:21;;;;;;;20.73;9.70;;;1.70;99.90;;;;;;5089415;28;20024;-74
2022/02/12 06:07:47;;;;;;;39.72;11.27;;;1.70;99.90;;;;;;5087649;28;20513;-73
2022/02/12 06:10:15;;;;;;;27.38;10.95;;;1.60;99.90;;;;;;5085863;28;20040;-73
2022/02/12 06:12:41;;;;;;;31.45;11.35;;;1.60;99.90;;;;;;5085943;28;20061;-72
2022/02/12 06:15:08;;;;;;;30.30;11.50;;;1.70;99.90;;;;;;5084877;28;20025;-72
2022/02/12 06:17:34;;;;;;;28.55;11.40;;;1.70;99.90;;;;;;5092561;28;20060;-73
2022/02/12 06:20:00;;;;;;;32.15;10.88;;;1.70;99.90;;;;;;5088560;28;20025;-72
2022/02/12 06:22:27;;;;;;;37.65;11.95;;;1.70;99.90;;;;;;5089762;28;20016;-72
2022/02/12 06:24:53;;;;;;;27.60;10.73;;;1.70;99.90;;;;;;5084924;28;20038;-74
2022/02/12 06:27:19;;;;;;;25.85;9.50;;;1.70;99.90;;;;;;5087003;28;20028;-72
2022/02/12 06:29:45;;;;;;;31.15;10.90;;;1.70;99.90;;;;;;5089115;28;20545;-72
2022/02/12 06:32:11;;;;;;;25.25;9.77;;;1.70;99.90;;;;;;5083815;28;20067;-76
2022/02/12 06:34:37;;;;;;;20.00;9.63;;;1.70;99.90;;;;;;5089589;28;20381;-73
2022/02/12 06:37:03;;;;;;;25.83;11.45;;;1.70;99.90;;;;;;5083578;28;20024;-72
2022/02/12 06:39:29;;;;;;;27.63;11.80;;;1.70;99.90;;;;;;5090184;28;20098;-72
2022/02/12 06:41:55;;;;;;;25.88;11.02;;;1.70;99.90;;;;;;5087760;28;20032;-72
2022/02/12 06:44:20;;;;;;;26.77;10.20;;;1.70;99.90;;;;;;5086614;28;20547;-71
2022/02/12 06:46:46;;;;;;;29.98;11.02;;;1.70;99.90;;;;;;5086485;28;20054;-72
2022/02/12 06:49:12;;;;;;;27.83;10.38;;;1.60;99.90;;;;;;5087257;28;20028;-71
2022/02/12 06:51:38;;;;;;;25.20;11.02;;;1.60;99.90;;;;;;5086921;28;20063;-72
2022/02/12 06:54:04;;;;;;;23.88;9.90;;;1.60;99.90;;;;;;5084262;28;20069;-72
2022/02/12 06:56:30;;;;;;;23.45;9.55;;;1.70;99.90;;;;;;5084968;28;20036;-71
2022/02/12 06:58:56;;;;;;;23.92;9.73;;;1.70;99.90;;;;;;5084542;28;20480;-72
2022/02/12 07:01:25;;;;;;;21.20;8.80;;;1.70;99.90;;;;;;5086817;28;20039;-74
2022/02/12 07:03:51;;;;;;;26.92;8.20;;;1.70;99.90;;;;;;5082132;28;20108;-74
2022/02/12 07:06:17;;;;;;;28.42;8.75;;;1.60;99.90;;;;;;5090279;28;20535;-72
2022/02/12 07:08:43;;;;;;;22.20;8.70;;;1.60;99.90;;;;;;5089648;28;20028;-72
2022/02/12 07:11:08;;;;;;;22.63;8.57;;;1.60;99.90;;;;;;5089798;28;20036;-72
2022/02/12 07:13:34;;;;;;;24.63;8.65;;;1.60;99.90;;;;;;5092243;28;20112;-72
2022/02/12 07:16:01;;;;;;;28.17;9.98;;;1.70;99.90;;;;;;5084790;28;20082;-72
2022/02/12 07:18:28;;;;;;;19.67;8.15;;;1.70;99.90;;;;;;5092692;28;20026;-72
2022/02/12 07:20:54;;;;;;;28.42;9.13;;;1.70;99.90;;;;;;5084859;28;20103;-72
2022/02/12 07:23:20;;;;;;;21.63;9.43;;;1.70;99.90;;;;;;5091827;28;20127;-72
2022/02/12 07:25:45;;;;;;;27.30;8.30;;;1.70;99.90;;;;;;5089193;28;20032;-72
2022/02/12 07:28:11;;;;;;;29.05;9.45;;;1.70;99.90;;;;;;5091106;28;20107;-72
2022/02/12 07:30:37;;;;;;;22.75;8.93;;;1.70;99.90;;;;;;5090639;28;20106;-72
2022/02/12 07:33:02;;;;;;;27.92;9.55;;;1.70;99.90;;;;;;5091569;28;20031;-72
2022/02/12 07:35:28;;;;;;;24.08;9.45;;;1.70;99.90;;;;;;5086347;28;20017;-72
2022/02/12 07:37:54;;;;;;;24.67;9.13;;;1.70;99.90;;;;;;5089851;28;20020;-72
2022/02/12 07:40:20;;;;;;;21.55;9.23;;;1.70;99.90;;;;;;5087230;28;20571;-72
2022/02/12 07:42:47;;;;;;;19.33;8.50;;;1.70;99.90;;;;;;5092694;28;20032;-71
2022/02/12 07:45:14;;;;;;;26.75;9.00;;;1.80;99.90;;;;;;5087682;28;20028;-72
2022/02/12 07:47:41;;;;;;;22.58;9.05;;;1.80;99.90;;;;;;5092982;28;20384;-72
2022/02/12 07:50:09;;;;;;;24.23;9.52;;;1.80;99.90;;;;;;5090906;28;20441;-71
2022/02/12 07:52:35;;;;;;;26.48;9.13;;;1.80;99.90;;;;;;5093557;28;20035;-72
2022/02/12 07:55:02;;;;;;;26.77;9.00;;;1.80;99.90;;;;;;5088765;28;20472;-71
2022/02/12 07:57:27;;;;;;;22.65;9.02;;;1.80;99.90;;;;;;5086654;28;20099;-71
2022/02/12 07:59:53;;;;;;;23.25;9.77;;;1.80;99.90;;;;;;5093899;28;20099;-71
2022/02/12 08:02:19;;;;;;;25.58;10.27;;;1.90;99.90;;;;;;5092388;28;20043;-72
2022/02/12 08:04:45;;;;;;;26.48;10.45;;;1.80;99.90;;;;;;5088971;28;20035;-72
2022/02/12 08:07:28;;;;;;;28.83;10.85;;;1.80;99.90;;;;;;5086379;28;20028;-72
2022/02/12 08:09:58;;;;;;;29.95;9.38;;;1.90;99.90;;;;;;5090947;28;20036;-73
2022/02/12 08:12:25;;;;;;;26.75;9.27;;;1.90;99.90;;;;;;5084201;28;20020;-73
2022/02/12 08:14:53;;;;;;;26.40;7.70;;;2.00;99.90;;;;;;5088412;28;20423;-73
2022/02/12 08:17:20;;;;;;;22.25;9.25;;;1.90;99.90;;;;;;5091445;28;20051;-72
2022/02/12 08:19:47;;;;;;;20.80;8.85;;;1.80;99.90;;;;;;5085094;28;20039;-72
2022/02/12 08:22:14;;;;;;;22.33;8.52;;;1.90;99.90;;;;;;5082782;28;20044;-71
2022/02/12 08:24:40;;;;;;;23.83;8.55;;;2.00;99.90;;;;;;5087399;28;20021;-72
2022/02/12 08:27:06;;;;;;;25.85;9.75;;;2.00;99.90;;;;;;5092171;28;20028;-72
2022/02/12 08:29:32;;;;;;;26.67;9.15;;;2.10;99.90;;;;;;5085852;28;20046;-72
2022/02/12 08:31:59;;;;;;;22.58;8.82;;;2.20;99.90;;;;;;5086728;28;20398;-72
2022/02/12 08:34:25;;;;;;;20.23;9.13;;;2.20;99.90;;;;;;5090497;28;20480;-72
2022/02/12 08:36:52;;;;;;;18.75;7.05;;;2.30;99.90;;;;;;5083721;28;20468;-73
2022/02/12 08:39:18;;;;;;;21.13;8.38;;;2.40;99.90;;;;;;5088370;28;20024;-72
2022/02/12 08:41:45;;;;;;;20.77;9.55;;;2.30;99.90;;;;;;5081755;28;20063;-73
2022/02/12 08:44:10;;;;;;;15.18;6.78;;;2.50;99.90;;;;;;5087164;28;20032;-73
2022/02/12 08:46:36;;;;;;;22.00;8.48;;;2.60;99.90;;;;;;5086727;28;20395;-72
2022/02/12 08:49:02;;;;;;;19.23;7.18;;;2.70;99.90;;;;;;5088330;28;20024;-73
2022/02/12 08:51:28;;;;;;;18.45;7.90;;;2.60;99.90;;;;;;5088249;28;20028;-73
2022/02/12 08:53:53;;;;;;;23.40;8.52;;;2.80;99.90;;;;;;5088980;28;20483;-73
2022/02/12 08:56:21;;;;;;;23.90;7.47;;;2.90;99.90;;;;;;5087491;28;20099;-72
2022/02/12 08:58:48;;;;;;;20.98;7.55;;;2.90;99.90;;;;;;5090138;28;20054;-72
2022/02/12 09:01:14;;;;;;;22.17;8.15;;;3.10;99.90;;;;;;5087064;28;20020;-77
2022/02/12 09:03:39;;;;;;;23.00;7.95;;;3.10;99.90;;;;;;5087257;28;20027;-72
2022/02/12 09:06:05;;;;;;;25.60;8.00;;;3.20;99.90;;;;;;5089626;28;20588;-73
2022/02/12 09:08:31;;;;;;;19.95;6.65;;;3.30;99.90;;;;;;5088372;28;20028;-74
2022/02/12 09:10:56;;;;;;;19.17;6.53;;;3.30;99.90;;;;;;5089605;28;20048;-74
2022/02/12 09:13:22;;;;;;;19.83;6.07;;;3.40;99.90;;;;;;5085844;28;20058;-73
2022/02/12 09:15:48;;;;;;;16.35;5.47;;;3.50;99.90;;;;;;5089003;28;20097;-74
2022/02/12 09:18:13;;;;;;;20.50;5.50;;;3.60;99.90;;;;;;5087452;28;20050;-74
2022/02/12 09:20:40;;;;;;;21.63;6.40;;;3.60;99.90;;;;;;5080734;28;20032;-74
2022/02/12 09:23:06;;;;;;;18.85;6.18;;;3.70;99.90;;;;;;5088827;28;20031;-73
2022/02/12 09:25:32;;;;;;;17.40;6.63;;;3.80;99.90;;;;;;5086401;28;20110;-73
2022/02/12 09:27:57;;;;;;;18.80;5.80;;;3.90;99.90;;;;;;5089102;28;20036;-73
2022/02/12 09:30:23;;;;;;;21.50;6.32;;;3.90;99.90;;;;;;5085549;28;20559;-73
2022/02/12 09:32:50;;;;;;;15.98;6.15;;;3.90;99.90;;;;;;5085064;28;21104;-73
2022/02/12 09:35:16;;;;;;;16.50;6.28;;;4.00;99.90;;;;;;5091074;28;20020;-73
2022/02/12 09:37:45;;;;;;;18.85;6.05;;;4.10;99.90;;;;;;5086096;28;20057;-73
2022/02/12 09:40:12;;;;;;;19.88;5.85;;;4.20;99.90;;;;;;5089500;28;20028;-72
2022/02/12 09:42:38;;;;;;;23.83;6.47;;;4.40;99.90;;;;;;5089014;28;20035;-73
2022/02/12 09:45:08;;;;;;;24.52;6.38;;;4.50;99.90;;;;;;5090123;28;20038;-72
2022/02/12 09:47:46;;;;;;;17.70;5.53;;;4.50;99.90;;;;;;5088116;28;20024;-73
2022/02/12 09:50:13;;;;;;;13.88;5.80;;;4.60;99.90;;;;;;5085291;28;20089;-73
2022/02/12 09:52:45;;;;;;;19.08;5.35;;;4.70;99.90;;;;;;5088086;28;20020;-73
2022/02/12 09:55:11;;;;;;;14.98;5.65;;;4.80;99.90;;;;;;5085693;28;20046;-73
2022/02/12 09:57:39;;;;;;;17.15;5.40;;;4.90;99.90;;;;;;5085893;28;20020;-73
2022/02/12 10:00:11;;;;;;;21.25;6.07;;;5.10;99.90;;;;;;5089525;28;20040;-73
2022/02/12 10:02:37;;;;;;;10.68;5.00;;;5.30;99.90;;;;;;5086713;28;20024;-73
2022/02/12 10:05:18;;;;;;;15.48;5.20;;;5.40;99.90;;;;;;5089532;28;20107;-73
2022/02/12 10:07:48;;;;;;;20.35;6.35;;;5.40;99.90;;;;;;5082659;28;20032;-73
2022/02/12 10:10:15;;;;;;;18.83;6.40;;;5.50;99.90;;;;;;5092291;28;20032;-72
2022/02/12 10:12:41;;;;;;;24.15;6.43;;;5.60;99.90;;;;;;5086533;28;20028;-73
2022/02/12 10:15:32;;;;;;;10.77;4.18;;;5.70;99.90;;;;;;5084664;28;20032;-72
2022/02/12 10:18:00;;;;;;;18.80;5.50;;;5.70;99.90;;;;;;5091651;28;20070;-72
2022/02/12 10:20:30;;;;;;;18.60;4.13;;;5.90;99.90;;;;;;5084415;28;20032;-72
2022/02/12 10:23:15;;;;;;;16.80;5.20;;;5.90;99.90;;;;;;5082828;28;20036;-72
2022/02/12 10:25:47;;;;;;;17.65;5.18;;;5.90;99.90;;;;;;5085364;28;20028;-72
2022/02/12 10:28:15;;;;;;;18.65;4.88;;;6.00;99.90;;;;;;5086815;28;20077;-74
2022/02/12 10:30:43;;;;;;;17.55;4.97;;;6.00;99.90;;;;;;5089146;28;20393;-72
2022/02/12 10:33:09;;;;;;;17.80;5.43;;;6.20;99.90;;;;;;5078192;28;20028;-72
2022/02/12 10:35:37;;;;;;;18.73;5.32;;;6.20;99.90;;;;;;5087084;28;20028;-72
2022/02/12 10:38:10;;;;;;;14.60;4.60;;;6.40;99.90;;;;;;5088900;28;20545;-74
2022/02/12 10:40:37;;;;;;;15.45;4.82;;;6.40;99.90;;;;;;5083974;28;20028;-74
2022/02/12 10:43:03;;;;;;;14.93;5.28;;;6.50;99.90;;;;;;5087256;28;20060;-74
2022/02/12 10:45:30;;;;;;;16.55;4.85;;;6.70;99.90;;;;;;5083381;28;20016;-73
2022/02/12 10:47:57;;;;;;;12.73;5.20;;;6.80;99.90;;;;;;5084401;28;20384;-74
2022/02/12 10:50:26;;;;;;;17.65;4.90;;;6.80;99.90;;;;;;5092763;28;20408;-72
2022/02/12 10:52:58;;;;;;;22.08;5.75;;;6.90;99.90;;;;;;5093091;28;20036;-73
2022/02/12 10:55:41;;;;;;;;;;;6.90;99.90;;;;;;5094278;28;20031;-70
2022/02/12 10:58:12;;;;;;;16.48;4.28;;;7.10;99.90;;;;;;5094134;28;19936;-73
2022/02/12 11:00:40;;;;;;;11.18;5.10;;;7.20;99.90;;;;;;5088542;28;20019;-74
2022/02/12 11:03:16;;;;;;;15.77;4.75;;;7.30;99.90;;;;;;5090213;28;20020;-76
2022/02/12 11:05:48;;;;;;;12.25;3.97;;;7.30;99.90;;;;;;5088227;28;20544;-73
2022/02/12 11:08:14;;;;;;;23.70;4.95;;;7.40;99.90;;;;;;5091087;28;20028;-73
2022/02/12 11:10:40;;;;;;;12.80;3.75;;;7.40;99.90;;;;;;5089602;28;20040;-73
2022/02/12 11:13:07;;;;;;;16.45;4.78;;;7.30;99.90;;;;;;5093697;28;20027;-74
2022/02/12 11:15:35;;;;;;;16.63;5.43;;;7.40;99.90;;;;;;5086743;28;20024;-73
2022/02/12 11:18:03;;;;;;;14.48;4.95;;;7.50;99.90;;;;;;5090973;28;20081;-74
2022/02/12 11:20:29;;;;;;;20.63;5.43;;;7.70;99.90;;;;;;5085027;28;20392;-74
2022/02/12 11:23:27;;;;;;;17.88;4.82;;;7.70;99.90;;;;;;5091435;28;20024;-74
2022/02/12 11:26:01;;;;;;;15.02;4.15;;;7.80;99.90;;;;;;5088049;28;20085;-73
2022/02/12 11:28:30;;;;;;;12.73;4.82;;;7.80;99.90;;;;;;5089970;28;20024;-74
2022/02/12 11:31:21;;;;;;;10.20;4.10;;;8.00;99.90;;;;;;5083704;28;20036;-74
2022/02/12 11:34:19;;;;;;;11.73;4.53;;;7.90;99.90;;;;;;5087678;28;20020;-74
2022/02/12 11:36:46;;;;;;;15.88;4.18;;;7.80;99.90;;;;;;5084633;28;20067;-74
2022/02/12 11:39:15;;;;;;;12.73;3.83;;;7.90;99.90;;;;;;5088932;28;20035;-74
2022/02/12 11:41:49;;;;;;;11.55;3.70;;;7.90;99.90;;;;;;5092289;28;20032;-73
2022/02/12 11:44:43;;;;;;;12.07;3.75;;;8.00;99.90;;;;;;5091645;28;20077;-73
2022/02/12 11:47:10;;;;;;;10.50;4.20;;;8.10;99.90;;;;;;5085998;28;20036;-72
2022/02/12 11:49:41;;;;;;;14.07;4.03;;;8.20;99.90;;;;;;5090574;28;20488;-72
2022/02/12 11:52:28;;;;;;;12.23;4.70;;;8.20;99.90;;;;;;5086989;28;20029;-73
2022/02/12 11:54:58;;;;;;;15.15;3.83;;;8.30;99.90;;;;;;5089829;28;20032;-73
2022/02/12 11:57:26;;;;;;;13.27;3.75;;;8.30;99.90;;;;;;5084070;28;20024;-73
2022/02/12 12:00:01;;;;;;;12.68;3.47;;;8.40;99.90;;;;;;5086738;28;20021;-72
2022/02/12 12:02:35;;;;;;;13.02;3.83;;;8.40;99.90;;;;;;5086877;28;20020;-72
2022/02/12 12:05:16;;;;;;;10.27;2.80;;;8.50;99.90;;;;;;5092108;28;20025;-74
2022/02/12 12:08:00;;;;;;;10.48;3.47;;;8.50;99.90;;;;;;5083180;28;20399;-72
2022/02/12 12:10:31;;;;;;;13.18;3.33;;;8.50;99.90;;;;;;5087608;28;20036;-72
2022/02/12 12:13:22;;;;;;;9.45;3.47;;;8.50;99.90;;;;;;5091228;28;20024;-72
2022/02/12 12:15:56;;;;;;;10.85;3.10;;;8.50;99.90;;;;;;5084265;28;20039;-73
2022/02/12 12:18:23;;;;;;;8.05;3.28;;;8.40;99.90;;;;;;5092968;28;20023;-73
2022/02/12 12:20:49;;;;;;;6.43;2.90;;;8.30;99.90;;;;;;5087693;28;20032;-73
2022/02/12 12:23:16;;;;;;;8.30;3.03;;;8.50;99.90;;;;;;5088920;28;20545;-73
2022/02/12 12:26:06;;;;;;;10.50;4.03;;;8.30;99.90;;;;;;5087797;28;20039;-73
2022/02/12 12:28:41;;;;;;;12.18;3.20;;;8.20;99.90;;;;;;5091933;28;20095;-73
2022/02/12 12:31:16;;;;;;;16.23;3.35;;;8.20;99.90;;;;;;5085906;28;20035;-73
2022/02/12 12:33:44;;;;;;;9.98;2.67;;;8.30;99.90;;;;;;5090759;28;20028;-73
2022/02/12 12:36:16;;;;;;;8.85;3.00;;;8.20;99.90;;;;;;5086597;28;20013;-73
2022/02/12 12:38:42;;;;;;;8.63;3.42;;;8.20;99.90;;;;;;5089697;28;20068;-73
2022/02/12 12:41:34;;;;;;;11.50;3.30;;;8.20;99.90;;;;;;5089331;28;20476;-73
2022/02/12 12:44:13;;;;;;;12.40;3.45;;;8.30;99.90;;;;;;5088131;28;20036;-73
2022/02/12 12:46:49;;;;;;;13.65;3.40;;;8.30;99.90;;;;;;5087153;28;20093;-72
2022/02/12 12:49:33;;;;;;;11.07;3.13;;;8.30;99.90;;;;;;5086640;28;20606;-73
2022/02/12 12:51:59;;;;;;;11.68;3.10;;;8.40;99.90;;;;;;5084138;28;20039;-73